sensor_id;sensor_type;location;lat;lon;timestamp;temperature;humidity
76785;SHT30;66893;44.316;0.092;2024-01-11T00:00:06;10.97;52.29
76785;SHT30;66893;44.316;0.092;2024-01-11T00:02:32;10.94;52.28
76785;SHT30;66893;44.316;0.092;2024-01-11T00:04:57;10.94;52.35
76785;SHT30;66893;44.316;0.092;2024-01-11T00:07:23;10.96;52.29
76785;SHT30;66893;44.316;0.092;2024-01-11T00:09:48;10.96;52.34
76785;SHT30;66893;44.316;0.092;2024-01-11T00:12:14;10.96;52.31
76785;SHT30;66893;44.316;0.092;2024-01-11T00:14:40;10.96;52.29
76785;SHT30;66893;44.316;0.092;2024-01-11T00:17:05;10.94;52.31
76785;SHT30;66893;44.316;0.092;2024-01-11T00:19:31;10.96;52.34
76785;SHT30;66893;44.316;0.092;2024-01-11T00:21:57;10.94;52.31
76785;SHT30;66893;44.316;0.092;2024-01-11T00:24:22;10.97;52.32
76785;SHT30;66893;44.316;0.092;2024-01-11T00:26:48;10.94;52.28
76785;SHT30;66893;44.316;0.092;2024-01-11T00:29:13;10.96;52.28
76785;SHT30;66893;44.316;0.092;2024-01-11T00:31:39;10.96;52.31
76785;SHT30;66893;44.316;0.092;2024-01-11T00:34:04;10.96;52.31
76785;SHT30;66893;44.316;0.092;2024-01-11T00:36:30;10.96;52.28
76785;SHT30;66893;44.316;0.092;2024-01-11T00:38:55;10.94;52.27
76785;SHT30;66893;44.316;0.092;2024-01-11T00:41:21;10.94;52.27
76785;SHT30;66893;44.316;0.092;2024-01-11T00:43:46;10.93;52.29
76785;SHT30;66893;44.316;0.092;2024-01-11T00:46:12;10.94;52.28
76785;SHT30;66893;44.316;0.092;2024-01-11T00:48:37;10.94;52.26
76785;SHT30;66893;44.316;0.092;2024-01-11T00:51:06;10.90;52.26
76785;SHT30;66893;44.316;0.092;2024-01-11T00:53:32;10.90;52.27
76785;SHT30;66893;44.316;0.092;2024-01-11T00:55:58;10.93;52.30
76785;SHT30;66893;44.316;0.092;2024-01-11T00:58:24;10.90;52.27
76785;SHT30;66893;44.316;0.092;2024-01-11T01:00:49;10.89;52.24
76785;SHT30;66893;44.316;0.092;2024-01-11T01:03:15;10.90;52.23
76785;SHT30;66893;44.316;0.092;2024-01-11T01:05:41;10.89;52.24
76785;SHT30;66893;44.316;0.092;2024-01-11T01:08:07;10.91;52.24
76785;SHT30;66893;44.316;0.092;2024-01-11T01:10:32;10.89;52.16
76785;SHT30;66893;44.316;0.092;2024-01-11T01:12:58;10.89;52.19
76785;SHT30;66893;44.316;0.092;2024-01-11T01:15:23;10.85;52.20
76785;SHT30;66893;44.316;0.092;2024-01-11T01:17:49;10.84;52.19
76785;SHT30;66893;44.316;0.092;2024-01-11T01:20:14;10.85;52.14
76785;SHT30;66893;44.316;0.092;2024-01-11T01:22:40;10.85;52.14
76785;SHT30;66893;44.316;0.092;2024-01-11T01:25:05;10.84;52.16
76785;SHT30;66893;44.316;0.092;2024-01-11T01:27:31;10.84;52.16
76785;SHT30;66893;44.316;0.092;2024-01-11T01:29:56;10.84;52.12
76785;SHT30;66893;44.316;0.092;2024-01-11T01:32:22;10.83;52.16
76785;SHT30;66893;44.316;0.092;2024-01-11T01:34:47;10.81;52.12
76785;SHT30;66893;44.316;0.092;2024-01-11T01:37:12;10.84;52.14
76785;SHT30;66893;44.316;0.092;2024-01-11T01:39:38;10.83;52.17
76785;SHT30;66893;44.316;0.092;2024-01-11T01:42:04;10.83;52.15
76785;SHT30;66893;44.316;0.092;2024-01-11T01:44:30;10.83;52.12
76785;SHT30;66893;44.316;0.092;2024-01-11T01:46:56;10.81;52.12
76785;SHT30;66893;44.316;0.092;2024-01-11T01:49:21;10.81;52.13
76785;SHT30;66893;44.316;0.092;2024-01-11T01:51:47;10.80;52.15
76785;SHT30;66893;44.316;0.092;2024-01-11T01:54:14;10.83;52.13
76785;SHT30;66893;44.316;0.092;2024-01-11T01:56:40;10.79;52.12
76785;SHT30;66893;44.316;0.092;2024-01-11T01:59:05;10.80;52.14
76785;SHT30;66893;44.316;0.092;2024-01-11T02:01:31;10.80;52.12
76785;SHT30;66893;44.316;0.092;2024-01-11T02:03:58;10.80;52.12
76785;SHT30;66893;44.316;0.092;2024-01-11T02:06:25;10.77;52.09
76785;SHT30;66893;44.316;0.092;2024-01-11T02:08:54;10.77;52.13
76785;SHT30;66893;44.316;0.092;2024-01-11T02:11:21;10.80;52.14
76785;SHT30;66893;44.316;0.092;2024-01-11T02:13:49;10.76;52.14
76785;SHT30;66893;44.316;0.092;2024-01-11T02:16:15;10.77;52.09
76785;SHT30;66893;44.316;0.092;2024-01-11T02:18:41;10.80;52.09
76785;SHT30;66893;44.316;0.092;2024-01-11T02:21:09;10.77;52.11
76785;SHT30;66893;44.316;0.092;2024-01-11T02:23:39;10.79;52.13
76785;SHT30;66893;44.316;0.092;2024-01-11T02:26:07;10.74;52.13
76785;SHT30;66893;44.316;0.092;2024-01-11T02:28:33;10.76;52.11
76785;SHT30;66893;44.316;0.092;2024-01-11T02:30:58;10.74;52.10
76785;SHT30;66893;44.316;0.092;2024-01-11T02:33:24;10.77;52.10
76785;SHT30;66893;44.316;0.092;2024-01-11T02:35:49;10.73;52.11
76785;SHT30;66893;44.316;0.092;2024-01-11T02:38:15;10.73;52.13
76785;SHT30;66893;44.316;0.092;2024-01-11T02:40:41;10.74;52.12
76785;SHT30;66893;44.316;0.092;2024-01-11T02:43:10;10.74;52.17
76785;SHT30;66893;44.316;0.092;2024-01-11T02:45:36;10.74;52.15
76785;SHT30;66893;44.316;0.092;2024-01-11T02:48:01;10.71;52.14
76785;SHT30;66893;44.316;0.092;2024-01-11T02:50:27;10.73;52.14
76785;SHT30;66893;44.316;0.092;2024-01-11T02:52:52;10.76;52.16
76785;SHT30;66893;44.316;0.092;2024-01-11T02:55:18;10.73;52.19
76785;SHT30;66893;44.316;0.092;2024-01-11T02:57:43;10.76;52.16
76785;SHT30;66893;44.316;0.092;2024-01-11T03:00:09;10.71;52.17
76785;SHT30;66893;44.316;0.092;2024-01-11T03:02:35;10.73;52.16
76785;SHT30;66893;44.316;0.092;2024-01-11T03:05:02;10.73;52.15
76785;SHT30;66893;44.316;0.092;2024-01-11T03:07:27;10.70;52.17
76785;SHT30;66893;44.316;0.092;2024-01-11T03:09:54;10.73;52.12
76785;SHT30;66893;44.316;0.092;2024-01-11T03:12:20;10.73;52.15
76785;SHT30;66893;44.316;0.092;2024-01-11T03:14:45;10.71;52.13
76785;SHT30;66893;44.316;0.092;2024-01-11T03:17:11;10.71;52.12
76785;SHT30;66893;44.316;0.092;2024-01-11T03:19:39;10.73;52.09
76785;SHT30;66893;44.316;0.092;2024-01-11T03:22:05;10.71;52.11
76785;SHT30;66893;44.316;0.092;2024-01-11T03:24:32;10.73;52.12
76785;SHT30;66893;44.316;0.092;2024-01-11T03:26:57;10.71;52.11
76785;SHT30;66893;44.316;0.092;2024-01-11T03:29:23;10.71;52.12
76785;SHT30;66893;44.316;0.092;2024-01-11T03:31:48;10.69;52.12
76785;SHT30;66893;44.316;0.092;2024-01-11T03:34:13;10.70;52.14
76785;SHT30;66893;44.316;0.092;2024-01-11T03:36:40;10.69;52.11
76785;SHT30;66893;44.316;0.092;2024-01-11T03:39:05;10.69;52.08
76785;SHT30;66893;44.316;0.092;2024-01-11T03:41:31;10.67;52.07
76785;SHT30;66893;44.316;0.092;2024-01-11T03:43:57;10.66;52.11
76785;SHT30;66893;44.316;0.092;2024-01-11T03:46:22;10.69;52.11
76785;SHT30;66893;44.316;0.092;2024-01-11T03:48:47;10.69;52.13
76785;SHT30;66893;44.316;0.092;2024-01-11T03:51:13;10.67;52.10
76785;SHT30;66893;44.316;0.092;2024-01-11T03:53:38;10.69;52.11
76785;SHT30;66893;44.316;0.092;2024-01-11T03:56:04;10.69;52.11
76785;SHT30;66893;44.316;0.092;2024-01-11T03:58:29;10.67;52.12
76785;SHT30;66893;44.316;0.092;2024-01-11T04:00:55;10.67;52.10
76785;SHT30;66893;44.316;0.092;2024-01-11T04:03:21;10.66;52.10
76785;SHT30;66893;44.316;0.092;2024-01-11T04:05:46;10.66;52.11
76785;SHT30;66893;44.316;0.092;2024-01-11T04:08:11;10.66;52.12
76785;SHT30;66893;44.316;0.092;2024-01-11T04:10:37;10.66;52.17
76785;SHT30;66893;44.316;0.092;2024-01-11T04:13:02;10.66;52.16
76785;SHT30;66893;44.316;0.092;2024-01-11T04:15:28;10.66;52.14
76785;SHT30;66893;44.316;0.092;2024-01-11T04:17:53;10.63;52.14
76785;SHT30;66893;44.316;0.092;2024-01-11T04:20:19;10.64;52.12
76785;SHT30;66893;44.316;0.092;2024-01-11T04:22:44;10.67;52.13
76785;SHT30;66893;44.316;0.092;2024-01-11T04:25:09;10.64;52.17
76785;SHT30;66893;44.316;0.092;2024-01-11T04:27:35;10.64;52.17
76785;SHT30;66893;44.316;0.092;2024-01-11T04:30:01;10.64;52.18
76785;SHT30;66893;44.316;0.092;2024-01-11T04:32:26;10.64;52.16
76785;SHT30;66893;44.316;0.092;2024-01-11T04:34:51;10.64;52.18
76785;SHT30;66893;44.316;0.092;2024-01-11T04:37:18;10.66;52.17
76785;SHT30;66893;44.316;0.092;2024-01-11T04:39:43;10.63;52.17
76785;SHT30;66893;44.316;0.092;2024-01-11T04:42:09;10.64;52.22
76785;SHT30;66893;44.316;0.092;2024-01-11T04:44:34;10.62;52.17
76785;SHT30;66893;44.316;0.092;2024-01-11T04:47:00;10.62;52.19
76785;SHT30;66893;44.316;0.092;2024-01-11T04:49:25;10.63;52.20
76785;SHT30;66893;44.316;0.092;2024-01-11T04:51:51;10.62;52.21
76785;SHT30;66893;44.316;0.092;2024-01-11T04:54:16;10.66;52.17
76785;SHT30;66893;44.316;0.092;2024-01-11T04:56:41;10.60;52.21
76785;SHT30;66893;44.316;0.092;2024-01-11T04:59:07;10.64;52.25
76785;SHT30;66893;44.316;0.092;2024-01-11T05:01:32;10.62;52.19
76785;SHT30;66893;44.316;0.092;2024-01-11T05:03:58;10.62;52.19
76785;SHT30;66893;44.316;0.092;2024-01-11T05:06:23;10.57;52.21
76785;SHT30;66893;44.316;0.092;2024-01-11T05:08:50;10.62;52.21
76785;SHT30;66893;44.316;0.092;2024-01-11T05:11:23;10.62;52.19
76785;SHT30;66893;44.316;0.092;2024-01-11T05:13:50;10.59;52.22
76785;SHT30;66893;44.316;0.092;2024-01-11T05:16:19;10.59;52.22
76785;SHT30;66893;44.316;0.092;2024-01-11T05:18:45;10.60;52.24
76785;SHT30;66893;44.316;0.092;2024-01-11T05:21:10;10.57;52.22
76785;SHT30;66893;44.316;0.092;2024-01-11T05:23:36;10.60;52.24
76785;SHT30;66893;44.316;0.092;2024-01-11T05:26:01;10.57;52.25
76785;SHT30;66893;44.316;0.092;2024-01-11T05:28:27;10.57;52.23
76785;SHT30;66893;44.316;0.092;2024-01-11T05:30:52;10.56;52.27
76785;SHT30;66893;44.316;0.092;2024-01-11T05:33:18;10.59;52.26
76785;SHT30;66893;44.316;0.092;2024-01-11T05:35:43;10.57;52.25
76785;SHT30;66893;44.316;0.092;2024-01-11T05:38:09;10.57;52.30
76785;SHT30;66893;44.316;0.092;2024-01-11T05:40:34;10.57;52.26
76785;SHT30;66893;44.316;0.092;2024-01-11T05:42:59;10.56;52.30
76785;SHT30;66893;44.316;0.092;2024-01-11T05:45:25;10.57;52.25
76785;SHT30;66893;44.316;0.092;2024-01-11T05:47:50;10.53;52.30
76785;SHT30;66893;44.316;0.092;2024-01-11T05:50:16;10.56;52.36
76785;SHT30;66893;44.316;0.092;2024-01-11T05:52:41;10.55;52.31
76785;SHT30;66893;44.316;0.092;2024-01-11T05:55:07;10.56;52.30
76785;SHT30;66893;44.316;0.092;2024-01-11T05:57:33;10.55;52.35
76785;SHT30;66893;44.316;0.092;2024-01-11T05:59:58;10.56;52.34
76785;SHT30;66893;44.316;0.092;2024-01-11T06:02:24;10.55;52.38
76785;SHT30;66893;44.316;0.092;2024-01-11T06:04:49;10.55;52.36
76785;SHT30;66893;44.316;0.092;2024-01-11T06:07:15;10.55;52.36
76785;SHT30;66893;44.316;0.092;2024-01-11T06:09:40;10.56;52.41
76785;SHT30;66893;44.316;0.092;2024-01-11T06:12:06;10.56;52.43
76785;SHT30;66893;44.316;0.092;2024-01-11T06:14:31;10.55;52.45
76785;SHT30;66893;44.316;0.092;2024-01-11T06:16:56;10.55;52.39
76785;SHT30;66893;44.316;0.092;2024-01-11T06:19:22;10.55;52.42
76785;SHT30;66893;44.316;0.092;2024-01-11T06:21:48;10.55;52.45
76785;SHT30;66893;44.316;0.092;2024-01-11T06:24:13;10.55;52.46
76785;SHT30;66893;44.316;0.092;2024-01-11T06:26:39;10.52;52.45
76785;SHT30;66893;44.316;0.092;2024-01-11T06:29:04;10.53;52.51
76785;SHT30;66893;44.316;0.092;2024-01-11T06:31:30;10.55;52.48
76785;SHT30;66893;44.316;0.092;2024-01-11T06:33:55;10.53;52.50
76785;SHT30;66893;44.316;0.092;2024-01-11T06:36:21;10.53;52.50
76785;SHT30;66893;44.316;0.092;2024-01-11T06:38:46;10.53;52.54
76785;SHT30;66893;44.316;0.092;2024-01-11T06:41:12;10.55;52.53
76785;SHT30;66893;44.316;0.092;2024-01-11T06:43:37;10.55;52.49
76785;SHT30;66893;44.316;0.092;2024-01-11T06:46:06;10.53;52.52
76785;SHT30;66893;44.316;0.092;2024-01-11T06:48:34;10.53;52.51
76785;SHT30;66893;44.316;0.092;2024-01-11T06:50:59;10.56;52.52
76785;SHT30;66893;44.316;0.092;2024-01-11T06:53:25;10.52;52.51
76785;SHT30;66893;44.316;0.092;2024-01-11T06:55:50;10.55;52.52
76785;SHT30;66893;44.316;0.092;2024-01-11T06:58:17;10.53;52.54
76785;SHT30;66893;44.316;0.092;2024-01-11T07:00:43;10.52;52.54
76785;SHT30;66893;44.316;0.092;2024-01-11T07:03:09;10.52;52.54
76785;SHT30;66893;44.316;0.092;2024-01-11T07:05:36;10.52;52.54
76785;SHT30;66893;44.316;0.092;2024-01-11T07:08:01;10.55;52.54
76785;SHT30;66893;44.316;0.092;2024-01-11T07:10:26;10.56;52.53
76785;SHT30;66893;44.316;0.092;2024-01-11T07:12:52;10.55;52.53
76785;SHT30;66893;44.316;0.092;2024-01-11T07:15:17;10.53;52.52
76785;SHT30;66893;44.316;0.092;2024-01-11T07:17:43;10.55;52.56
76785;SHT30;66893;44.316;0.092;2024-01-11T07:20:08;10.53;52.54
76785;SHT30;66893;44.316;0.092;2024-01-11T07:22:34;10.55;52.50
76785;SHT30;66893;44.316;0.092;2024-01-11T07:25:01;10.56;52.54
76785;SHT30;66893;44.316;0.092;2024-01-11T07:27:26;10.57;52.52
76785;SHT30;66893;44.316;0.092;2024-01-11T07:29:52;10.56;52.52
76785;SHT30;66893;44.316;0.092;2024-01-11T07:32:17;10.55;52.53
76785;SHT30;66893;44.316;0.092;2024-01-11T07:34:42;10.56;52.52
76785;SHT30;66893;44.316;0.092;2024-01-11T07:37:08;10.57;52.50
76785;SHT30;66893;44.316;0.092;2024-01-11T07:39:33;10.59;52.56
76785;SHT30;66893;44.316;0.092;2024-01-11T07:42:00;10.57;52.51
76785;SHT30;66893;44.316;0.092;2024-01-11T07:44:26;10.57;52.53
76785;SHT30;66893;44.316;0.092;2024-01-11T07:46:51;10.57;52.55
76785;SHT30;66893;44.316;0.092;2024-01-11T07:49:17;10.59;52.56
76785;SHT30;66893;44.316;0.092;2024-01-11T07:51:42;10.55;52.48
76785;SHT30;66893;44.316;0.092;2024-01-11T07:54:08;10.43;52.43
76785;SHT30;66893;44.316;0.092;2024-01-11T07:56:33;10.38;52.56
76785;SHT30;66893;44.316;0.092;2024-01-11T07:58:58;10.36;52.66
76785;SHT30;66893;44.316;0.092;2024-01-11T08:01:24;10.36;52.66
76785;SHT30;66893;44.316;0.092;2024-01-11T08:03:50;10.35;52.68
76785;SHT30;66893;44.316;0.092;2024-01-11T08:06:17;10.36;52.72
76785;SHT30;66893;44.316;0.092;2024-01-11T08:08:43;10.39;52.77
76785;SHT30;66893;44.316;0.092;2024-01-11T08:11:09;10.42;52.77
76785;SHT30;66893;44.316;0.092;2024-01-11T08:13:34;10.42;52.72
76785;SHT30;66893;44.316;0.092;2024-01-11T08:16:01;10.43;52.73
76785;SHT30;66893;44.316;0.092;2024-01-11T08:18:33;10.48;52.76
76785;SHT30;66893;44.316;0.092;2024-01-11T08:20:59;10.48;52.74
76785;SHT30;66893;44.316;0.092;2024-01-11T08:23:24;10.48;52.72
76785;SHT30;66893;44.316;0.092;2024-01-11T08:25:50;10.49;52.76
76785;SHT30;66893;44.316;0.092;2024-01-11T08:28:15;10.50;52.77
76785;SHT30;66893;44.316;0.092;2024-01-11T08:30:41;10.50;52.71
76785;SHT30;66893;44.316;0.092;2024-01-11T08:33:07;10.52;52.70
76785;SHT30;66893;44.316;0.092;2024-01-11T08:35:33;10.53;52.72
76785;SHT30;66893;44.316;0.092;2024-01-11T08:37:58;10.52;52.71
76785;SHT30;66893;44.316;0.092;2024-01-11T08:40:24;10.52;52.74
76785;SHT30;66893;44.316;0.092;2024-01-11T08:42:50;10.52;52.71
76785;SHT30;66893;44.316;0.092;2024-01-11T08:45:16;10.55;52.69
76785;SHT30;66893;44.316;0.092;2024-01-11T08:47:45;10.56;52.69
76785;SHT30;66893;44.316;0.092;2024-01-11T08:50:15;10.57;52.69
76785;SHT30;66893;44.316;0.092;2024-01-11T08:52:41;10.60;52.67
76785;SHT30;66893;44.316;0.092;2024-01-11T08:55:07;10.60;52.70
76785;SHT30;66893;44.316;0.092;2024-01-11T08:57:33;10.59;52.71
76785;SHT30;66893;44.316;0.092;2024-01-11T08:59:58;10.59;52.70
76785;SHT30;66893;44.316;0.092;2024-01-11T09:02:24;10.62;52.70
76785;SHT30;66893;44.316;0.092;2024-01-11T09:04:49;10.60;52.69
76785;SHT30;66893;44.316;0.092;2024-01-11T09:07:15;10.60;52.70
76785;SHT30;66893;44.316;0.092;2024-01-11T09:09:41;10.63;52.69
76785;SHT30;66893;44.316;0.092;2024-01-11T09:12:06;10.63;52.72
76785;SHT30;66893;44.316;0.092;2024-01-11T09:14:32;10.64;52.72
76785;SHT30;66893;44.316;0.092;2024-01-11T09:16:57;10.64;52.71
76785;SHT30;66893;44.316;0.092;2024-01-11T09:19:23;10.69;52.76
76785;SHT30;66893;44.316;0.092;2024-01-11T09:21:48;10.69;52.83
76785;SHT30;66893;44.316;0.092;2024-01-11T09:24:14;10.70;52.80
76785;SHT30;66893;44.316;0.092;2024-01-11T09:26:39;10.71;52.77
76785;SHT30;66893;44.316;0.092;2024-01-11T09:29:05;10.74;52.76
76785;SHT30;66893;44.316;0.092;2024-01-11T09:31:30;10.74;52.79
76785;SHT30;66893;44.316;0.092;2024-01-11T09:33:56;10.77;52.90
76785;SHT30;66893;44.316;0.092;2024-01-11T09:36:22;10.80;52.93
76785;SHT30;66893;44.316;0.092;2024-01-11T09:38:48;10.85;52.95
76785;SHT30;66893;44.316;0.092;2024-01-11T09:41:14;10.87;52.96
76785;SHT30;66893;44.316;0.092;2024-01-11T09:43:43;10.89;52.95
76785;SHT30;66893;44.316;0.092;2024-01-11T09:46:11;10.89;52.89
76785;SHT30;66893;44.316;0.092;2024-01-11T09:48:38;10.93;52.87
76785;SHT30;66893;44.316;0.092;2024-01-11T09:51:08;10.94;52.95
76785;SHT30;66893;44.316;0.092;2024-01-11T09:53:38;10.97;52.90
76785;SHT30;66893;44.316;0.092;2024-01-11T09:56:08;10.97;52.92
76785;SHT30;66893;44.316;0.092;2024-01-11T09:58:35;11.00;52.89
76785;SHT30;66893;44.316;0.092;2024-01-11T10:01:08;11.03;52.90
76785;SHT30;66893;44.316;0.092;2024-01-11T10:03:34;11.07;52.94
76785;SHT30;66893;44.316;0.092;2024-01-11T10:06:00;11.11;52.96
76785;SHT30;66893;44.316;0.092;2024-01-11T10:08:27;11.15;52.90
76785;SHT30;66893;44.316;0.092;2024-01-11T10:10:53;11.18;52.86
76785;SHT30;66893;44.316;0.092;2024-01-11T10:13:18;11.21;52.86
76785;SHT30;66893;44.316;0.092;2024-01-11T10:15:44;11.22;52.87
76785;SHT30;66893;44.316;0.092;2024-01-11T10:18:09;11.25;52.80
76785;SHT30;66893;44.316;0.092;2024-01-11T10:20:35;11.29;52.77
76785;SHT30;66893;44.316;0.092;2024-01-11T10:23:02;11.32;52.74
76785;SHT30;66893;44.316;0.092;2024-01-11T10:25:28;11.39;52.68
76785;SHT30;66893;44.316;0.092;2024-01-11T10:27:54;11.43;52.64
76785;SHT30;66893;44.316;0.092;2024-01-11T10:30:19;11.46;52.57
76785;SHT30;66893;44.316;0.092;2024-01-11T10:32:47;11.47;52.52
76785;SHT30;66893;44.316;0.092;2024-01-11T10:35:13;11.51;52.49
76785;SHT30;66893;44.316;0.092;2024-01-11T10:37:38;11.56;52.50
76785;SHT30;66893;44.316;0.092;2024-01-11T10:40:07;11.55;52.54
76785;SHT30;66893;44.316;0.092;2024-01-11T10:42:45;11.53;52.62
76785;SHT30;66893;44.316;0.092;2024-01-11T10:45:17;11.56;52.65
76785;SHT30;66893;44.316;0.092;2024-01-11T10:47:50;11.55;52.66
76785;SHT30;66893;44.316;0.092;2024-01-11T10:50:18;11.56;52.67
76785;SHT30;66893;44.316;0.092;2024-01-11T10:55:24;11.65;52.71
76785;SHT30;66893;44.316;0.092;2024-01-11T10:57:51;11.69;52.69
76785;SHT30;66893;44.316;0.092;2024-01-11T11:00:17;11.67;52.69
76785;SHT30;66893;44.316;0.092;2024-01-11T11:02:44;11.70;52.68
76785;SHT30;66893;44.316;0.092;2024-01-11T11:05:13;11.72;52.67
76785;SHT30;66893;44.316;0.092;2024-01-11T11:07:41;11.76;52.68
76785;SHT30;66893;44.316;0.092;2024-01-11T11:10:08;11.77;52.72
76785;SHT30;66893;44.316;0.092;2024-01-11T11:12:35;11.77;52.73
76785;SHT30;66893;44.316;0.092;2024-01-11T11:15:03;11.79;52.71
76785;SHT30;66893;44.316;0.092;2024-01-11T11:17:28;11.81;52.76
76785;SHT30;66893;44.316;0.092;2024-01-11T11:19:54;11.81;52.74
76785;SHT30;66893;44.316;0.092;2024-01-11T11:22:20;11.83;52.77
76785;SHT30;66893;44.316;0.092;2024-01-11T11:24:45;11.83;52.74
76785;SHT30;66893;44.316;0.092;2024-01-11T11:27:14;11.86;52.76
76785;SHT30;66893;44.316;0.092;2024-01-11T11:29:40;11.84;52.78
76785;SHT30;66893;44.316;0.092;2024-01-11T11:32:05;11.87;52.74
76785;SHT30;66893;44.316;0.092;2024-01-11T11:34:41;11.87;52.73
76785;SHT30;66893;44.316;0.092;2024-01-11T11:37:08;11.90;52.69
76785;SHT30;66893;44.316;0.092;2024-01-11T11:39:34;11.93;52.77
76785;SHT30;66893;44.316;0.092;2024-01-11T11:41:59;11.95;52.76
76785;SHT30;66893;44.316;0.092;2024-01-11T11:44:26;11.98;52.73
76785;SHT30;66893;44.316;0.092;2024-01-11T11:46:52;11.95;52.78
76785;SHT30;66893;44.316;0.092;2024-01-11T11:49:18;11.94;52.74
76785;SHT30;66893;44.316;0.092;2024-01-11T11:51:43;11.90;52.74
76785;SHT30;66893;44.316;0.092;2024-01-11T11:54:09;11.93;52.75
76785;SHT30;66893;44.316;0.092;2024-01-11T11:56:35;11.94;53.09
76785;SHT30;66893;44.316;0.092;2024-01-11T11:59:02;12.02;53.12
76785;SHT30;66893;44.316;0.092;2024-01-11T12:01:28;12.04;52.74
76785;SHT30;66893;44.316;0.092;2024-01-11T12:03:53;12.05;52.94
76785;SHT30;66893;44.316;0.092;2024-01-11T12:06:20;12.01;52.92
76785;SHT30;66893;44.316;0.092;2024-01-11T12:08:48;12.00;52.94
76785;SHT30;66893;44.316;0.092;2024-01-11T12:11:19;12.01;52.96
76785;SHT30;66893;44.316;0.092;2024-01-11T12:13:46;11.95;52.96
76785;SHT30;66893;44.316;0.092;2024-01-11T12:16:12;11.94;52.95
76785;SHT30;66893;44.316;0.092;2024-01-11T12:18:38;11.91;53.05
76785;SHT30;66893;44.316;0.092;2024-01-11T12:21:04;11.90;53.07
76785;SHT30;66893;44.316;0.092;2024-01-11T12:23:30;11.93;53.08
76785;SHT30;66893;44.316;0.092;2024-01-11T12:25:57;11.91;53.12
76785;SHT30;66893;44.316;0.092;2024-01-11T12:28:29;11.93;53.15
76785;SHT30;66893;44.316;0.092;2024-01-11T12:30:54;11.91;53.11
76785;SHT30;66893;44.316;0.092;2024-01-11T12:33:20;11.89;53.08
76785;SHT30;66893;44.316;0.092;2024-01-11T12:35:47;11.87;53.13
76785;SHT30;66893;44.316;0.092;2024-01-11T12:38:13;11.87;53.13
76785;SHT30;66893;44.316;0.092;2024-01-11T12:40:38;11.91;53.17
76785;SHT30;66893;44.316;0.092;2024-01-11T12:43:05;11.89;53.21
76785;SHT30;66893;44.316;0.092;2024-01-11T12:45:33;11.91;53.17
76785;SHT30;66893;44.316;0.092;2024-01-11T12:47:59;11.89;53.18
76785;SHT30;66893;44.316;0.092;2024-01-11T12:50:26;11.89;53.17
76785;SHT30;66893;44.316;0.092;2024-01-11T12:53:08;11.89;53.15
76785;SHT30;66893;44.316;0.092;2024-01-11T12:55:34;11.90;53.19
76785;SHT30;66893;44.316;0.092;2024-01-11T12:58:09;11.94;53.20
76785;SHT30;66893;44.316;0.092;2024-01-11T13:00:35;11.91;53.19
76785;SHT30;66893;44.316;0.092;2024-01-11T13:03:02;11.94;53.21
76785;SHT30;66893;44.316;0.092;2024-01-11T13:05:28;11.94;53.16
76785;SHT30;66893;44.316;0.092;2024-01-11T13:07:55;11.95;53.14
76785;SHT30;66893;44.316;0.092;2024-01-11T13:10:21;11.94;53.20
76785;SHT30;66893;44.316;0.092;2024-01-11T13:12:49;11.97;53.18
76785;SHT30;66893;44.316;0.092;2024-01-11T13:15:14;11.98;53.20
76785;SHT30;66893;44.316;0.092;2024-01-11T13:17:40;12.00;53.20
76785;SHT30;66893;44.316;0.092;2024-01-11T13:20:05;11.98;53.22
76785;SHT30;66893;44.316;0.092;2024-01-11T13:22:32;12.05;53.07
76785;SHT30;66893;44.316;0.092;2024-01-11T13:24:57;12.04;53.31
76785;SHT30;66893;44.316;0.092;2024-01-11T13:27:23;12.07;53.45
76785;SHT30;66893;44.316;0.092;2024-01-11T13:29:48;12.10;53.45
76785;SHT30;66893;44.316;0.092;2024-01-11T13:32:14;12.11;53.43
76785;SHT30;66893;44.316;0.092;2024-01-11T13:34:39;12.13;53.14
76785;SHT30;66893;44.316;0.092;2024-01-11T13:37:04;12.11;53.30
76785;SHT30;66893;44.316;0.092;2024-01-11T13:39:30;12.13;53.24
76785;SHT30;66893;44.316;0.092;2024-01-11T13:41:56;12.13;53.30
76785;SHT30;66893;44.316;0.092;2024-01-11T13:44:22;12.14;53.24
76785;SHT30;66893;44.316;0.092;2024-01-11T13:46:47;12.11;53.23
76785;SHT30;66893;44.316;0.092;2024-01-11T13:49:12;12.13;53.21
76785;SHT30;66893;44.316;0.092;2024-01-11T13:51:38;12.16;53.20
76785;SHT30;66893;44.316;0.092;2024-01-11T13:54:04;12.14;53.20
76785;SHT30;66893;44.316;0.092;2024-01-11T13:56:29;12.14;53.17
76785;SHT30;66893;44.316;0.092;2024-01-11T13:58:55;12.17;53.15
76785;SHT30;66893;44.316;0.092;2024-01-11T14:01:20;12.17;53.12
76785;SHT30;66893;44.316;0.092;2024-01-11T14:03:45;12.16;53.11
76785;SHT30;66893;44.316;0.092;2024-01-11T14:06:11;12.16;53.22
76785;SHT30;66893;44.316;0.092;2024-01-11T14:08:37;12.18;53.13
76785;SHT30;66893;44.316;0.092;2024-01-11T14:11:03;12.17;53.11
76785;SHT30;66893;44.316;0.092;2024-01-11T14:13:29;12.18;53.10
76785;SHT30;66893;44.316;0.092;2024-01-11T14:15:54;12.21;53.09
76785;SHT30;66893;44.316;0.092;2024-01-11T14:18:22;12.18;53.04
76785;SHT30;66893;44.316;0.092;2024-01-11T14:20:47;12.17;53.01
76785;SHT30;66893;44.316;0.092;2024-01-11T14:23:13;12.17;52.96
76785;SHT30;66893;44.316;0.092;2024-01-11T14:25:38;12.16;52.96
76785;SHT30;66893;44.316;0.092;2024-01-11T14:28:04;12.16;52.92
76785;SHT30;66893;44.316;0.092;2024-01-11T14:30:30;12.14;52.90
76785;SHT30;66893;44.316;0.092;2024-01-11T14:32:55;12.11;52.92
76785;SHT30;66893;44.316;0.092;2024-01-11T14:35:20;12.13;52.94
76785;SHT30;66893;44.316;0.092;2024-01-11T14:37:46;12.07;52.92
76785;SHT30;66893;44.316;0.092;2024-01-11T14:40:12;12.07;52.96
76785;SHT30;66893;44.316;0.092;2024-01-11T14:42:38;12.05;52.97
76785;SHT30;66893;44.316;0.092;2024-01-11T14:45:05;12.04;52.92
76785;SHT30;66893;44.316;0.092;2024-01-11T14:47:31;12.05;52.97
76785;SHT30;66893;44.316;0.092;2024-01-11T14:49:57;12.05;52.94
76785;SHT30;66893;44.316;0.092;2024-01-11T14:52:23;12.02;52.92
76785;SHT30;66893;44.316;0.092;2024-01-11T14:54:49;12.02;52.98
76785;SHT30;66893;44.316;0.092;2024-01-11T14:57:15;12.02;52.99
76785;SHT30;66893;44.316;0.092;2024-01-11T14:59:41;12.02;52.94
76785;SHT30;66893;44.316;0.092;2024-01-11T15:02:06;12.02;53.00
76785;SHT30;66893;44.316;0.092;2024-01-11T15:04:32;11.97;52.90
76785;SHT30;66893;44.316;0.092;2024-01-11T15:06:57;12.01;52.93
76785;SHT30;66893;44.316;0.092;2024-01-11T15:09:23;11.98;52.94
76785;SHT30;66893;44.316;0.092;2024-01-11T15:11:48;11.98;52.92
76785;SHT30;66893;44.316;0.092;2024-01-11T15:14:14;11.97;52.93
76785;SHT30;66893;44.316;0.092;2024-01-11T15:16:39;11.97;52.96
76785;SHT30;66893;44.316;0.092;2024-01-11T15:19:05;11.94;52.93
76785;SHT30;66893;44.316;0.092;2024-01-11T15:21:31;11.94;52.84
76785;SHT30;66893;44.316;0.092;2024-01-11T15:23:57;11.87;52.73